KBAM/BAM METAR and TAF weather

Enter ICAO airport designator
Station Type Date Time Source
KBAM METAR 2022/08/12 14:55 UTC NOAA

KBAM 121455Z AUTO 00000KT 10SM CLR 22/13 A3015 RMK AO1


Station Type Date Time Source
KBAM Decoded METAR 2022/08/12 14:55 UTC NOAA

Station name not available
Aug 12, 2022 - 10:55 AM EDT / 2022.08.12 1455 UTC
Wind: Calm:0
Visibility: 10 mile(s):0
Sky conditions: clear
Temperature: 71 F (22 C)
Dew Point: 55 F (13 C)
Relative Humidity: 56%
Pressure (altimeter): 30.15 in. Hg (1020 hPa)
ob: KBAM 121455Z AUTO 00000KT 10SM CLR 22/13 A3015 RMK AO1
cycle: 15

Station Type Date Time Source
KBAM TAF 2022/08/12 12:24 UTC NOAA

TAF KBAM 121121Z 1212/1312 VRB06KT P6SM FEW120
FM122200 24008G18KT P6SM FEW120
FM130100 VRB04KT P6SM SKC

Example: see airport list